createdAt,value
2019-04-21T00:00:54.292Z,17.80
2019-04-21T00:01:53.890Z,17.20
2019-04-21T00:02:59.622Z,17.30
2019-04-21T00:04:12.353Z,16.40
2019-04-21T00:05:30.692Z,16.90
2019-04-21T00:06:39.809Z,16.60
2019-04-21T00:07:40.404Z,15.70
2019-04-21T00:08:56.597Z,15.20
2019-04-21T00:10:06.278Z,15.10
2019-04-21T00:10:56.708Z,15.60
2019-04-21T00:12:02.036Z,15.10
2019-04-21T00:13:07.041Z,14.90
2019-04-21T00:14:07.737Z,14.90
2019-04-21T00:15:09.786Z,14.60
2019-04-21T00:16:07.488Z,15.00
2019-04-21T00:17:13.149Z,14.30
2019-04-21T00:18:15.587Z,14.60
2019-04-21T00:19:24.674Z,14.30
2019-04-21T00:20:35.244Z,14.20
2019-04-21T00:21:38.479Z,13.80
2019-04-21T00:22:47.954Z,14.00
2019-04-21T00:24:00.402Z,13.70
2019-04-21T00:25:01.107Z,14.10
2019-04-21T00:26:03.959Z,13.80
2019-04-21T00:27:18.521Z,13.70
2019-04-21T00:28:34.663Z,13.80
2019-04-21T00:29:34.227Z,13.70
2019-04-21T00:30:30.372Z,13.20
2019-04-21T00:31:36.674Z,13.10
2019-04-21T00:32:39.511Z,13.70
2019-04-21T00:33:35.629Z,13.50
2019-04-21T00:34:42.744Z,13.50
2019-04-21T00:35:52.036Z,13.90
2019-04-21T00:36:59.616Z,14.00
2019-04-21T00:38:21.389Z,14.00
2019-04-21T00:39:29.006Z,13.70
2019-04-21T00:40:29.770Z,14.10
2019-04-21T00:41:29.523Z,14.30
2019-04-21T00:42:34.225Z,14.20
2019-04-21T00:43:37.257Z,14.60
2019-04-21T00:44:36.686Z,14.60
2019-04-21T00:45:44.646Z,14.60
2019-04-21T00:46:52.217Z,14.10
2019-04-21T00:48:03.889Z,13.80
2019-04-21T00:49:06.115Z,13.80
2019-04-21T00:50:11.282Z,14.10
2019-04-21T00:52:39.907Z,14.50
2019-04-21T00:54:45.662Z,14.30
2019-04-21T00:55:44.574Z,14.70
2019-04-21T00:56:50.050Z,13.70
2019-04-21T00:57:58.644Z,13.60
2019-04-21T00:58:59.318Z,13.70
2019-04-21T01:00:07.696Z,13.30
2019-04-21T01:01:12.642Z,13.60
2019-04-21T01:02:12.429Z,13.60
2019-04-21T01:03:26.740Z,13.60
2019-04-21T01:04:33.568Z,13.40
2019-04-21T01:05:36.597Z,13.20
2019-04-21T01:06:43.494Z,13.80
2019-04-21T01:07:42.431Z,13.30
2019-04-21T01:08:46.791Z,13.60
2019-04-21T01:09:48.876Z,14.30
2019-04-21T01:10:52.979Z,13.90
2019-04-21T01:12:03.765Z,14.30
2019-04-21T01:13:18.888Z,13.90
2019-04-21T01:14:20.059Z,14.00
2019-04-21T01:15:37.357Z,13.80
2019-04-21T01:16:33.164Z,14.20
2019-04-21T01:17:35.272Z,14.40
2019-04-21T01:18:38.064Z,14.30
2019-04-21T01:19:41.170Z,14.40
2019-04-21T01:20:28.522Z,14.30
2019-04-21T01:21:34.032Z,14.30
2019-04-21T01:22:39.546Z,14.30
2019-04-21T01:23:46.399Z,14.10
2019-04-21T01:25:01.324Z,14.40
2019-04-21T01:26:13.804Z,14.20
2019-04-21T01:27:10.054Z,14.40
2019-04-21T01:28:27.181Z,15.10
2019-04-21T01:29:40.322Z,14.40
2019-04-21T01:30:39.974Z,14.50
2019-04-21T01:31:42.228Z,15.00
2019-04-21T01:32:49.419Z,14.50
2019-04-21T01:33:59.093Z,14.10
2019-04-21T01:35:02.762Z,14.10
2019-04-21T01:36:05.449Z,14.10
2019-04-21T01:37:03.898Z,15.10
2019-04-21T01:38:27.300Z,14.70
2019-04-21T01:39:29.387Z,13.70
2019-04-21T01:40:37.670Z,14.60
2019-04-21T01:41:40.936Z,14.80
2019-04-21T01:42:38.190Z,13.80
2019-04-21T01:43:43.097Z,14.10
2019-04-21T01:44:54.784Z,14.10
2019-04-21T01:45:56.509Z,14.50
2019-04-21T01:46:51.830Z,14.50
2019-04-21T01:48:01.187Z,14.50
2019-04-21T01:49:06.772Z,14.60
2019-04-21T01:50:09.889Z,14.90
2019-04-21T01:51:18.901Z,14.90
2019-04-21T01:52:38.674Z,14.10
2019-04-21T01:53:36.446Z,14.60
2019-04-21T01:54:45.882Z,15.30
2019-04-21T01:55:45.424Z,14.90
2019-04-21T01:56:51.308Z,15.20
2019-04-21T01:57:55.349Z,15.70
2019-04-21T01:58:51.438Z,14.50
2019-04-21T01:59:57.036Z,14.70
2019-04-21T02:01:08.717Z,15.00
2019-04-21T02:02:17.099Z,14.90
2019-04-21T02:03:42.996Z,14.70
2019-04-21T02:04:36.346Z,15.40
2019-04-21T02:05:37.453Z,15.20
2019-04-21T02:06:39.102Z,15.30
2019-04-21T02:07:44.683Z,15.90
2019-04-21T02:08:51.497Z,15.40
2019-04-21T02:09:56.820Z,15.90
2019-04-21T02:11:07.516Z,16.00
2019-04-21T02:12:09.748Z,16.50
2019-04-21T02:13:12.066Z,16.20
2019-04-21T02:14:23.011Z,16.00
2019-04-21T02:15:33.016Z,16.90
2019-04-21T02:16:32.732Z,17.30
2019-04-21T02:17:34.300Z,17.00
2019-04-21T02:18:38.978Z,17.20
2019-04-21T02:19:45.078Z,16.70
2019-04-21T02:20:43.439Z,16.10
2019-04-21T02:21:47.507Z,16.80
2019-04-21T02:23:28.141Z,16.90
2019-04-21T02:24:11.879Z,16.70
2019-04-21T02:25:18.335Z,16.40
2019-04-21T02:26:22.609Z,16.60
2019-04-21T02:27:26.184Z,15.60
2019-04-21T02:28:36.911Z,16.00
2019-04-21T02:29:40.867Z,15.60
2019-04-21T02:30:58.638Z,15.80
2019-04-21T02:32:04.248Z,15.70
2019-04-21T02:33:08.643Z,15.70
2019-04-21T02:35:21.950Z,16.00
2019-04-21T02:37:40.224Z,16.80
2019-04-21T02:40:49.547Z,17.00
2019-04-21T02:41:51.180Z,17.00
2019-04-21T02:42:56.102Z,16.90
2019-04-21T02:44:00.390Z,17.20
2019-04-21T02:45:09.332Z,17.20
2019-04-21T02:46:12.598Z,17.40
2019-04-21T02:47:16.991Z,17.10
2019-04-21T02:48:17.263Z,16.80
2019-04-21T02:50:31.734Z,17.30
2019-04-21T02:52:43.622Z,17.30
2019-04-21T02:56:00.688Z,17.50
2019-04-21T02:57:11.288Z,17.60
2019-04-21T02:59:15.019Z,16.90
2019-04-21T03:00:25.069Z,17.30
2019-04-21T03:01:33.529Z,17.50
2019-04-21T03:03:37.944Z,17.50
2019-04-21T03:04:45.804Z,17.70
2019-04-21T03:07:01.582Z,17.70
2019-04-21T03:08:03.242Z,17.70
2019-04-21T03:09:12.329Z,17.80
2019-04-21T03:10:14.434Z,18.40
2019-04-21T03:12:19.683Z,18.60
2019-04-21T03:13:29.856Z,19.20
2019-04-21T03:15:37.363Z,18.90
2019-04-21T03:16:57.759Z,18.90
2019-04-21T03:17:49.970Z,17.90
2019-04-21T03:18:56.762Z,19.00
2019-04-21T03:20:02.875Z,18.50
2019-04-21T03:21:09.075Z,18.20
2019-04-21T03:22:14.209Z,20.60
2019-04-21T03:23:23.774Z,20.40
2019-04-21T03:24:17.345Z,20.30
2019-04-21T03:28:45.747Z,20.10
2019-04-21T03:29:54.826Z,20.10
2019-04-21T03:32:33.204Z,19.20
2019-04-21T03:37:39.665Z,20.40
2019-04-21T03:40:40.993Z,20.40
2019-04-21T03:42:02.008Z,20.00
2019-04-21T03:42:59.851Z,20.30
2019-04-21T03:44:00.739Z,21.00
2019-04-21T03:46:05.896Z,20.40
2019-04-21T03:47:23.465Z,20.60
2019-04-21T03:48:27.103Z,21.20
2019-04-21T03:49:45.466Z,21.10
2019-04-21T03:51:48.343Z,20.20
2019-04-21T03:52:53.234Z,19.50
2019-04-21T03:53:46.206Z,20.20
2019-04-21T03:55:30.030Z,20.10
2019-04-21T03:59:12.663Z,21.00
2019-04-21T04:00:42.134Z,20.80
2019-04-21T04:01:25.983Z,20.90
2019-04-21T04:02:55.655Z,20.40
2019-04-21T04:03:52.112Z,21.20
2019-04-21T04:04:45.723Z,20.30
2019-04-21T04:07:06.026Z,20.10
2019-04-21T04:08:09.043Z,20.20
2019-04-21T04:09:31.358Z,20.80
2019-04-21T04:10:13.541Z,20.70
2019-04-21T04:12:19.640Z,20.80
2019-04-21T04:13:37.256Z,21.20
2019-04-21T04:14:42.579Z,20.30
2019-04-21T04:15:56.201Z,20.60
2019-04-21T04:17:46.726Z,21.70
2019-04-21T04:20:09.158Z,20.50
2019-04-21T04:21:14.984Z,21.40
2019-04-21T04:22:30.928Z,21.30
2019-04-21T04:23:20.939Z,21.20
2019-04-21T04:28:58.122Z,21.90
2019-04-21T04:29:51.517Z,21.00
2019-04-21T04:31:58.803Z,20.40
2019-04-21T04:33:12.476Z,20.60
2019-04-21T04:34:29.297Z,21.20
2019-04-21T04:35:28.458Z,20.90
2019-04-21T04:38:41.500Z,21.50
2019-04-21T04:39:52.981Z,21.40
2019-04-21T04:40:48.918Z,21.30
2019-04-21T04:42:55.620Z,21.60
2019-04-21T04:44:32.263Z,21.90
2019-04-21T04:45:17.659Z,22.90
2019-04-21T04:46:35.361Z,21.30
2019-04-21T04:51:58.793Z,21.50
2019-04-21T04:52:48.921Z,22.10
2019-04-21T04:53:47.300Z,21.80
2019-04-21T04:56:03.675Z,21.40
2019-04-21T04:57:16.111Z,21.30
2019-04-21T04:58:56.282Z,21.10
2019-04-21T04:59:43.428Z,20.70
2019-04-21T05:00:36.927Z,21.40
2019-04-21T05:01:46.598Z,20.80
2019-04-21T05:04:00.369Z,20.50
2019-04-21T05:04:59.301Z,20.20
2019-04-21T05:06:06.863Z,20.30
2019-04-21T05:06:58.079Z,20.00
2019-04-21T05:08:07.625Z,20.00
2019-04-21T05:10:17.641Z,20.50
2019-04-21T05:11:30.882Z,20.10
2019-04-21T05:12:22.761Z,20.60
2019-04-21T05:13:34.808Z,20.70
2019-04-21T05:14:39.023Z,20.60
2019-04-21T05:15:41.698Z,21.40
2019-04-21T05:17:51.024Z,20.30
2019-04-21T05:20:10.292Z,20.90
2019-04-21T05:21:24.488Z,21.30
2019-04-21T05:22:20.237Z,20.60
2019-04-21T05:23:11.963Z,20.70
2019-04-21T05:24:16.255Z,20.80
2019-04-21T05:25:18.502Z,20.50
2019-04-21T05:26:23.345Z,20.60
2019-04-21T05:27:29.372Z,20.30
2019-04-21T05:28:32.703Z,20.50
2019-04-21T05:29:53.536Z,20.40
2019-04-21T05:30:58.481Z,20.10
2019-04-21T05:31:57.038Z,20.60
2019-04-21T05:33:03.969Z,20.10
2019-04-21T05:34:10.732Z,20.20
2019-04-21T05:35:14.522Z,20.60
2019-04-21T05:36:18.743Z,19.40
2019-04-21T05:37:25.927Z,19.70
2019-04-21T05:38:27.222Z,19.00
2019-04-21T05:39:29.747Z,19.10
2019-04-21T05:40:35.924Z,19.20
2019-04-21T05:41:37.268Z,19.80
2019-04-21T05:42:52.943Z,19.70
2019-04-21T05:44:01.493Z,19.90
2019-04-21T05:45:12.334Z,19.80
2019-04-21T05:46:13.743Z,20.00
2019-04-21T05:47:33.271Z,20.30
2019-04-21T05:48:22.949Z,19.40
2019-04-21T05:49:22.389Z,19.60
2019-04-21T05:50:26.558Z,19.70
2019-04-21T05:51:30.757Z,19.50
2019-04-21T05:52:35.263Z,19.60
2019-04-21T05:53:52.094Z,20.30
2019-04-21T05:54:57.393Z,20.10
2019-04-21T05:56:03.608Z,20.10
2019-04-21T05:57:05.938Z,19.90
2019-04-21T05:58:06.954Z,20.30
2019-04-21T05:59:12.181Z,20.40
2019-04-21T06:00:35.198Z,20.70
2019-04-21T06:01:33.241Z,21.20
2019-04-21T06:02:28.975Z,21.90
2019-04-21T06:03:44.699Z,22.30
2019-04-21T06:06:59.871Z,21.60
2019-04-21T06:08:00.460Z,21.50
2019-04-21T06:09:10.028Z,22.40
2019-04-21T06:10:06.894Z,21.90
2019-04-21T06:11:18.113Z,22.20
2019-04-21T06:12:21.189Z,22.80
2019-04-21T06:13:41.006Z,22.80
2019-04-21T06:14:38.339Z,23.20
2019-04-21T06:15:44.579Z,23.60
2019-04-21T06:16:54.361Z,24.10
2019-04-21T06:17:49.167Z,23.10
2019-04-21T06:20:03.040Z,24.00
2019-04-21T06:21:07.233Z,24.80
2019-04-21T06:22:08.337Z,25.00
2019-04-21T06:23:20.934Z,24.50
2019-04-21T06:24:26.997Z,24.70
2019-04-21T06:26:51.778Z,25.60
2019-04-21T06:27:42.430Z,25.00
2019-04-21T06:28:45.352Z,26.00
2019-04-21T06:29:50.212Z,24.60
2019-04-21T06:31:08.092Z,24.90
2019-04-21T06:32:20.427Z,23.70
2019-04-21T06:33:09.964Z,24.30
2019-04-21T06:34:16.654Z,24.10
2019-04-21T06:35:37.769Z,24.50
2019-04-21T06:36:36.132Z,23.00
2019-04-21T06:38:43.266Z,22.70
2019-04-21T06:39:54.264Z,23.40
2019-04-21T06:40:48.394Z,23.70
2019-04-21T06:41:49.190Z,23.80
2019-04-21T06:43:08.233Z,23.90
2019-04-21T06:44:09.393Z,24.60
2019-04-21T06:45:32.148Z,23.60
2019-04-21T06:46:20.009Z,23.50
2019-04-21T06:47:26.592Z,24.20
2019-04-21T06:48:26.212Z,24.00
2019-04-21T06:49:27.882Z,23.00
2019-04-21T06:50:41.120Z,23.10
2019-04-21T06:51:38.518Z,23.20
2019-04-21T06:53:59.283Z,21.30
2019-04-21T06:55:02.651Z,20.90
2019-04-21T06:56:04.998Z,20.70
2019-04-21T06:57:12.217Z,20.70
2019-04-21T06:58:10.221Z,19.80
2019-04-21T06:59:17.457Z,18.00
2019-04-21T07:00:22.703Z,17.50
2019-04-21T07:01:30.825Z,17.10
2019-04-21T07:02:43.790Z,17.00
2019-04-21T07:03:42.157Z,17.30
2019-04-21T07:05:02.104Z,16.50
2019-04-21T07:05:57.626Z,16.20
2019-04-21T07:07:12.956Z,15.80
2019-04-21T07:08:07.598Z,16.10
2019-04-21T07:09:15.300Z,14.60
2019-04-21T07:10:19.553Z,15.90
2019-04-21T07:11:18.679Z,15.30
2019-04-21T07:12:23.145Z,14.10
2019-04-21T07:13:28.732Z,14.40
2019-04-21T07:14:31.954Z,14.00
2019-04-21T07:15:46.337Z,13.20
2019-04-21T07:16:50.921Z,13.20
2019-04-21T07:17:54.004Z,12.70
2019-04-21T07:19:07.122Z,12.30
2019-04-21T07:20:18.855Z,12.50
2019-04-21T07:21:09.566Z,12.40
2019-04-21T07:22:21.444Z,13.00
2019-04-21T07:23:28.512Z,12.70
2019-04-21T07:24:46.154Z,12.50
2019-04-21T07:25:32.791Z,12.70
2019-04-21T07:26:36.722Z,12.50
2019-04-21T07:28:54.442Z,12.40
2019-04-21T07:29:55.115Z,12.10
2019-04-21T07:31:03.407Z,12.30
2019-04-21T07:32:04.441Z,12.50
2019-04-21T07:33:37.500Z,12.40
2019-04-21T07:34:23.971Z,12.30
2019-04-21T07:35:23.597Z,12.30
2019-04-21T07:36:43.418Z,12.00
2019-04-21T07:37:33.540Z,11.80
2019-04-21T07:38:37.936Z,12.00
2019-04-21T07:39:40.718Z,11.30
2019-04-21T07:40:41.720Z,12.00
2019-04-21T07:41:48.418Z,11.60
2019-04-21T07:42:54.157Z,11.80
2019-04-21T07:44:03.256Z,11.70
2019-04-21T07:45:05.149Z,11.50
2019-04-21T07:46:06.775Z,11.70
2019-04-21T07:47:23.444Z,12.10
2019-04-21T07:48:24.943Z,12.20
2019-04-21T07:49:36.938Z,11.20
2019-04-21T07:50:45.479Z,11.90
2019-04-21T07:51:49.049Z,11.40
2019-04-21T07:52:55.354Z,11.30
2019-04-21T07:54:13.953Z,10.70
2019-04-21T07:55:12.899Z,11.00
2019-04-21T07:55:46.926Z,11.20
2019-04-21T07:57:03.988Z,11.80
2019-04-21T07:58:15.000Z,11.80
2019-04-21T08:00:29.622Z,11.20
2019-04-21T08:01:30.546Z,11.10
2019-04-21T08:02:33.997Z,11.40
2019-04-21T08:04:24.803Z,11.80
2019-04-21T08:05:10.231Z,12.30
2019-04-21T08:05:58.915Z,11.60
2019-04-21T08:06:55.464Z,11.20
2019-04-21T08:07:59.515Z,11.10
2019-04-21T08:09:07.438Z,11.20
2019-04-21T08:10:14.520Z,11.50
2019-04-21T08:11:24.334Z,11.50
2019-04-21T08:12:20.389Z,11.00
2019-04-21T08:13:34.255Z,11.30
2019-04-21T08:14:38.352Z,11.20
2019-04-21T08:15:45.801Z,11.20
2019-04-21T08:16:53.977Z,11.60
2019-04-21T08:17:54.721Z,11.80
2019-04-21T08:18:59.818Z,11.60
2019-04-21T08:20:00.202Z,13.20
2019-04-21T08:21:06.246Z,13.30
2019-04-21T08:22:20.253Z,13.80
2019-04-21T08:23:22.109Z,13.40
2019-04-21T08:25:34.901Z,12.00
2019-04-21T08:27:47.793Z,11.90
2019-04-21T08:28:58.873Z,12.20
2019-04-21T08:29:54.873Z,11.80
2019-04-21T08:31:01.430Z,12.40
2019-04-21T08:32:07.967Z,12.30
2019-04-21T08:33:15.975Z,12.30
2019-04-21T08:34:24.198Z,13.60
2019-04-21T08:36:32.652Z,13.80
2019-04-21T08:37:31.100Z,14.10
2019-04-21T08:38:40.228Z,14.50
2019-04-21T08:41:00.117Z,13.70
2019-04-21T08:41:58.675Z,14.20
2019-04-21T08:43:20.631Z,13.70
2019-04-21T08:44:01.779Z,13.40
2019-04-21T08:45:15.233Z,13.80
2019-04-21T08:46:20.252Z,14.40
2019-04-21T08:47:25.654Z,13.90
2019-04-21T08:48:28.536Z,13.50
2019-04-21T08:49:35.077Z,14.00
2019-04-21T08:50:36.339Z,14.10
2019-04-21T08:51:48.438Z,13.30
2019-04-21T08:55:05.692Z,14.10
2019-04-21T08:56:12.200Z,13.20
2019-04-21T08:57:19.733Z,13.20
2019-04-21T08:58:25.668Z,13.60
2019-04-21T08:59:26.822Z,13.20
2019-04-21T09:00:33.500Z,13.40
2019-04-21T09:01:38.187Z,13.10
2019-04-21T09:02:43.092Z,12.80
2019-04-21T09:03:44.032Z,13.00
2019-04-21T09:06:00.961Z,13.30
2019-04-21T09:08:03.831Z,12.70
2019-04-21T09:09:22.404Z,12.60
2019-04-21T09:10:17.050Z,12.70
2019-04-21T09:11:20.997Z,12.40
2019-04-21T09:12:28.645Z,12.50
2019-04-21T09:13:29.666Z,12.60
2019-04-21T09:14:36.855Z,12.90
2019-04-21T09:15:41.884Z,12.90
2019-04-21T09:16:47.793Z,12.20
2019-04-21T09:17:51.552Z,12.20
2019-04-21T09:18:53.653Z,12.10
2019-04-21T09:20:13.946Z,12.40
2019-04-21T09:21:13.558Z,12.10
2019-04-21T09:22:18.249Z,12.10
2019-04-21T09:23:19.408Z,12.00
2019-04-21T09:24:29.533Z,12.50
2019-04-21T09:25:44.687Z,12.30
2019-04-21T09:26:36.984Z,12.70
2019-04-21T09:27:42.474Z,12.60
2019-04-21T09:28:46.363Z,12.20
2019-04-21T09:29:44.718Z,12.40
2019-04-21T09:30:48.909Z,11.90
2019-04-21T09:31:50.283Z,13.00
2019-04-21T09:32:56.899Z,12.20
2019-04-21T09:34:03.167Z,12.20
2019-04-21T09:35:10.277Z,13.00
2019-04-21T09:36:15.384Z,12.30
2019-04-21T09:37:28.670Z,11.70
2019-04-21T09:38:30.157Z,11.00
2019-04-21T09:39:29.687Z,12.00
2019-04-21T09:40:37.194Z,11.40
2019-04-21T09:41:40.731Z,12.00
2019-04-21T09:42:53.258Z,11.40
2019-04-21T09:43:52.755Z,11.70
2019-04-21T09:45:00.495Z,11.20
2019-04-21T09:46:01.830Z,11.00
2019-04-21T09:47:07.414Z,11.80
2019-04-21T09:48:16.453Z,11.00
2019-04-21T09:49:21.732Z,11.30
2019-04-21T09:50:22.328Z,11.20
2019-04-21T09:51:28.120Z,11.00
2019-04-21T09:52:44.334Z,11.60
2019-04-21T09:53:42.229Z,11.10
2019-04-21T09:54:52.031Z,11.00
2019-04-21T09:55:56.170Z,10.90
2019-04-21T09:57:01.630Z,10.80
2019-04-21T09:58:10.054Z,11.40
2019-04-21T09:59:13.675Z,11.10
2019-04-21T10:00:17.966Z,10.80
2019-04-21T10:01:25.397Z,10.30
2019-04-21T10:02:35.247Z,9.80
2019-04-21T10:03:39.691Z,9.40
2019-04-21T10:04:34.059Z,9.40
2019-04-21T10:05:39.586Z,8.80
2019-04-21T10:06:45.308Z,9.30
2019-04-21T10:07:50.786Z,9.10
2019-04-21T10:09:02.785Z,9.10
2019-04-21T10:10:01.633Z,8.80
2019-04-21T10:11:07.780Z,9.30
2019-04-21T10:12:12.665Z,9.50
2019-04-21T10:13:18.183Z,9.00
2019-04-21T10:14:24.299Z,9.50
2019-04-21T10:15:29.808Z,9.40
2019-04-21T10:16:34.733Z,9.80
2019-04-21T10:17:40.256Z,9.50
2019-04-21T10:18:46.114Z,9.50
2019-04-21T10:19:51.299Z,8.80
2019-04-21T10:20:57.046Z,9.80
2019-04-21T10:22:04.016Z,10.10
2019-04-21T10:23:09.138Z,10.10
2019-04-21T10:24:13.368Z,10.50
2019-04-21T10:25:18.859Z,10.50
2019-04-21T10:26:24.449Z,10.10
2019-04-21T10:27:29.902Z,9.60
2019-04-21T10:28:35.425Z,9.60
2019-04-21T10:29:43.126Z,10.10
2019-04-21T10:30:46.871Z,9.50
2019-04-21T10:31:52.447Z,9.90
2019-04-21T10:32:58.504Z,9.80
2019-04-21T10:34:03.172Z,9.60
2019-04-21T10:35:08.525Z,8.90
2019-04-21T10:36:15.110Z,9.10
2019-04-21T10:37:20.791Z,8.80
2019-04-21T10:38:33.253Z,9.70
2019-04-21T10:39:31.566Z,9.50
2019-04-21T10:40:37.338Z,9.40
2019-04-21T10:41:41.692Z,9.50
2019-04-21T10:42:48.124Z,9.30
2019-04-21T10:43:53.346Z,9.40
2019-04-21T10:44:58.874Z,9.20
2019-04-21T10:46:04.491Z,10.30
2019-04-21T10:47:09.239Z,9.20
2019-04-21T10:48:14.760Z,10.30
2019-04-21T10:49:20.259Z,9.90
2019-04-21T10:50:26.798Z,10.50
2019-04-21T10:51:31.292Z,10.60
2019-04-21T10:52:37.358Z,10.40
2019-04-21T10:53:42.810Z,9.40
2019-04-21T10:55:06.820Z,9.50
2019-04-21T10:56:06.090Z,10.30
2019-04-21T10:56:58.875Z,10.00
2019-04-21T10:58:04.585Z,9.70
2019-04-21T10:59:10.256Z,9.30
2019-04-21T11:00:16.065Z,9.50
2019-04-21T11:01:21.119Z,9.70
2019-04-21T11:02:26.519Z,9.80
2019-04-21T11:03:33.259Z,10.30
2019-04-21T11:04:40.175Z,9.40
2019-04-21T11:05:43.028Z,9.20
2019-04-21T11:06:48.639Z,9.30
2019-04-21T11:08:07.867Z,9.50
2019-04-21T11:09:01.496Z,9.40
2019-04-21T11:10:05.095Z,10.10
2019-04-21T11:11:11.994Z,9.10
2019-04-21T11:12:16.139Z,9.30
2019-04-21T11:13:22.934Z,9.70
2019-04-21T11:14:27.269Z,10.40
2019-04-21T11:15:32.859Z,10.90
2019-04-21T11:16:39.213Z,10.50
2019-04-21T11:17:45.125Z,10.30
2019-04-21T11:18:49.243Z,11.00
2019-04-21T11:19:54.883Z,11.20
2019-04-21T11:21:00.744Z,11.10
2019-04-21T11:22:07.114Z,10.10
2019-04-21T11:23:12.126Z,10.40
2019-04-21T11:24:18.091Z,10.30
2019-04-21T11:25:22.345Z,10.20
2019-04-21T11:26:27.872Z,10.30
2019-04-21T11:27:33.385Z,10.40
2019-04-21T11:28:38.981Z,10.20
2019-04-21T11:29:44.426Z,10.40
2019-04-21T11:30:50.981Z,9.80
2019-04-21T11:31:56.803Z,9.80
2019-04-21T11:33:01.436Z,9.60
2019-04-21T11:34:07.303Z,9.90
2019-04-21T11:35:12.919Z,9.50
2019-04-21T11:36:17.541Z,8.90
2019-04-21T11:37:24.105Z,8.90
2019-04-21T11:38:31.845Z,9.60
2019-04-21T11:39:42.009Z,9.10
2019-04-21T11:40:39.976Z,9.00
2019-04-21T11:41:45.750Z,9.20
2019-04-21T11:42:51.530Z,8.40
2019-04-21T11:43:57.218Z,8.40
2019-04-21T11:45:01.683Z,8.40
2019-04-21T11:46:08.489Z,8.40
2019-04-21T11:47:12.741Z,9.60
2019-04-21T11:48:18.552Z,9.20
2019-04-21T11:49:24.532Z,8.50
2019-04-21T11:50:29.282Z,8.30
2019-04-21T11:51:35.220Z,8.00
2019-04-21T11:52:41.094Z,7.90
2019-04-21T11:53:46.608Z,9.10
2019-04-21T11:54:51.348Z,9.10
2019-04-21T11:55:57.054Z,8.80
2019-04-21T11:57:11.730Z,8.60
2019-04-21T11:58:07.917Z,9.00
2019-04-21T11:59:13.425Z,8.50
2019-04-21T12:00:19.833Z,8.30
2019-04-21T12:01:25.587Z,8.30
2019-04-21T12:02:29.982Z,8.10
2019-04-21T12:03:35.824Z,8.10
2019-04-21T12:04:41.298Z,9.10
2019-04-21T12:05:47.745Z,9.10
2019-04-21T12:06:52.876Z,9.30
2019-04-21T12:07:58.527Z,9.50
2019-04-21T12:09:04.926Z,8.60
2019-04-21T12:10:09.224Z,8.50
2019-04-21T12:11:15.727Z,8.50
2019-04-21T12:12:19.675Z,9.10
2019-04-21T12:13:25.184Z,9.20
2019-04-21T12:14:32.035Z,8.90
2019-04-21T12:15:36.803Z,8.90
2019-04-21T12:16:41.729Z,8.60
2019-04-21T12:17:48.067Z,8.10
2019-04-21T12:18:52.770Z,8.30
2019-04-21T12:19:59.002Z,8.30
2019-04-21T12:21:05.217Z,8.30
2019-04-21T12:22:19.283Z,8.10
2019-04-21T12:23:14.877Z,8.50
2019-04-21T12:24:21.516Z,8.40
2019-04-21T12:25:27.172Z,8.90
2019-04-21T12:26:31.801Z,8.70
2019-04-21T12:27:38.000Z,8.90
2019-04-21T12:28:43.761Z,8.10
2019-04-21T12:29:49.237Z,8.50
2019-04-21T12:30:53.812Z,8.30
2019-04-21T12:31:59.416Z,8.50
2019-04-21T12:33:04.523Z,8.90
2019-04-21T12:34:10.028Z,9.40
2019-04-21T12:35:15.822Z,9.40
2019-04-21T12:36:21.987Z,9.30
2019-04-21T12:37:26.853Z,9.30
2019-04-21T12:38:42.752Z,9.80
2019-04-21T12:39:38.749Z,9.40
2019-04-21T12:40:44.285Z,9.40
2019-04-21T12:41:48.993Z,8.50
2019-04-21T12:42:54.871Z,9.00
2019-04-21T12:44:00.459Z,8.70
2019-04-21T12:45:05.602Z,8.50
2019-04-21T12:46:11.851Z,9.60
2019-04-21T12:47:16.322Z,8.60
2019-04-21T12:48:22.142Z,9.50
2019-04-21T12:49:27.589Z,9.30
2019-04-21T12:50:34.075Z,9.00
2019-04-21T12:51:39.669Z,9.40
2019-04-21T12:52:45.252Z,9.60
2019-04-21T12:53:49.852Z,8.80
2019-04-21T12:54:55.577Z,9.20
2019-04-21T12:56:02.000Z,9.10
2019-04-21T12:57:05.932Z,9.00
2019-04-21T12:58:11.465Z,9.10
2019-04-21T12:59:17.005Z,8.80
2019-04-21T13:00:22.830Z,9.10
2019-04-21T13:01:28.029Z,9.30
2019-04-21T13:02:33.848Z,9.20
2019-04-21T13:03:39.708Z,8.90
2019-04-21T13:04:45.887Z,8.80
2019-04-21T13:05:50.114Z,9.10
2019-04-21T13:06:55.612Z,8.80
2019-04-21T13:08:01.601Z,9.00
2019-04-21T13:09:10.733Z,9.30
2019-04-21T13:10:12.694Z,9.30
2019-04-21T13:11:19.102Z,10.20
2019-04-21T13:12:23.236Z,8.80
2019-04-21T13:13:30.022Z,8.80
2019-04-21T13:14:34.252Z,9.00
2019-04-21T13:15:39.904Z,9.50
2019-04-21T13:16:45.687Z,9.10
2019-04-21T13:17:52.135Z,9.20
2019-04-21T13:18:57.518Z,9.30
2019-04-21T13:20:03.364Z,8.10
2019-04-21T13:21:07.371Z,8.90
2019-04-21T13:22:14.019Z,8.50
2019-04-21T13:23:18.969Z,9.10
2019-04-21T13:24:24.157Z,8.90
2019-04-21T13:25:29.779Z,8.90
2019-04-21T13:26:43.079Z,9.60
2019-04-21T13:27:40.892Z,9.70
2019-04-21T13:28:46.004Z,9.10
2019-04-21T13:29:52.388Z,8.70
2019-04-21T13:30:58.120Z,8.70
2019-04-21T13:32:04.978Z,8.90
2019-04-21T13:33:09.151Z,9.10
2019-04-21T13:34:13.988Z,8.20
2019-04-21T13:35:19.224Z,9.60
2019-04-21T13:36:25.666Z,9.00
2019-04-21T13:37:30.170Z,8.50
2019-04-21T13:38:42.756Z,8.40
2019-04-21T13:40:21.024Z,8.30
2019-04-21T13:41:03.769Z,8.10
2019-04-21T13:42:05.609Z,8.10
2019-04-21T13:43:01.730Z,8.30
2019-04-21T13:44:03.395Z,8.40
2019-04-21T13:45:10.205Z,8.00
2019-04-21T13:46:15.489Z,8.20
2019-04-21T13:47:20.781Z,7.80
2019-04-21T13:48:26.440Z,7.90
2019-04-21T13:49:31.640Z,8.00
2019-04-21T13:50:37.288Z,7.80
2019-04-21T13:51:41.913Z,8.00
2019-04-21T13:52:48.845Z,8.20
2019-04-21T13:53:53.573Z,8.10
2019-04-21T13:54:58.468Z,8.00
2019-04-21T13:56:04.700Z,8.40
2019-04-21T13:57:10.491Z,8.20
2019-04-21T13:58:16.652Z,8.00
2019-04-21T13:59:20.563Z,8.10
2019-04-21T14:00:27.378Z,7.90
2019-04-21T14:01:31.869Z,7.90
2019-04-21T14:02:38.559Z,8.20
2019-04-21T14:03:43.889Z,7.20
2019-04-21T14:04:49.545Z,7.80
2019-04-21T14:05:54.130Z,8.00
2019-04-21T14:07:00.414Z,8.00
2019-04-21T14:08:05.108Z,7.30
2019-04-21T14:09:10.233Z,8.30
2019-04-21T14:10:16.064Z,8.00
2019-04-21T14:11:21.273Z,8.20
2019-04-21T14:12:27.538Z,7.70
2019-04-21T14:13:32.334Z,7.30
2019-04-21T14:14:38.646Z,7.60
2019-04-21T14:15:45.329Z,7.00
2019-04-21T14:16:49.917Z,7.00
2019-04-21T14:17:54.895Z,7.00
2019-04-21T14:19:01.357Z,6.90
2019-04-21T14:20:05.450Z,7.00
2019-04-21T14:21:11.385Z,7.30
2019-04-21T14:22:16.465Z,7.60
2019-04-21T14:23:30.812Z,7.60
2019-04-21T14:24:28.737Z,7.30
2019-04-21T14:25:33.023Z,7.40
2019-04-21T14:26:38.640Z,7.20
2019-04-21T14:27:46.995Z,7.90
2019-04-21T14:28:49.594Z,7.60
2019-04-21T14:29:55.549Z,7.50
2019-04-21T14:31:02.124Z,7.60
2019-04-21T14:32:06.444Z,7.30
2019-04-21T14:33:12.076Z,7.20
2019-04-21T14:34:17.170Z,7.00
2019-04-21T14:35:22.919Z,7.50
2019-04-21T14:36:28.680Z,6.90
2019-04-21T14:37:34.877Z,7.00
2019-04-21T14:38:40.657Z,6.80
2019-04-21T14:39:52.837Z,7.10
2019-04-21T14:40:50.402Z,6.80
2019-04-21T14:41:56.149Z,7.00
2019-04-21T14:43:02.616Z,7.00
2019-04-21T14:44:06.991Z,7.10
2019-04-21T14:45:12.631Z,6.30
2019-04-21T14:46:19.335Z,6.70
2019-04-21T14:47:23.395Z,6.70
2019-04-21T14:48:29.554Z,6.50
2019-04-21T14:49:35.245Z,6.60
2019-04-21T14:50:40.072Z,6.90
2019-04-21T14:51:45.506Z,6.70
2019-04-21T14:52:51.001Z,7.40
2019-04-21T14:53:56.524Z,7.40
2019-04-21T14:55:02.836Z,6.90
2019-04-21T14:56:08.827Z,6.70
2019-04-21T14:57:13.572Z,7.20
2019-04-21T14:58:19.112Z,7.30
2019-04-21T14:59:24.757Z,6.90
2019-04-21T15:00:31.186Z,7.10
2019-04-21T15:01:35.862Z,7.10
2019-04-21T15:02:41.261Z,7.00
2019-04-21T15:03:46.188Z,7.10
2019-04-21T15:04:51.717Z,7.10
2019-04-21T15:05:57.729Z,6.90
2019-04-21T15:07:03.362Z,6.50
2019-04-21T15:08:09.135Z,6.70
2019-04-21T15:09:13.788Z,6.40
2019-04-21T15:10:25.209Z,6.60
2019-04-21T15:11:26.007Z,6.70
2019-04-21T15:12:30.341Z,6.90
2019-04-21T15:13:35.851Z,6.60
2019-04-21T15:14:42.237Z,7.00
2019-04-21T15:15:47.913Z,7.00
2019-04-21T15:16:52.413Z,6.20
2019-04-21T15:17:57.973Z,6.60
2019-04-21T15:19:04.438Z,6.60
2019-04-21T15:20:13.515Z,6.60
2019-04-21T15:21:15.354Z,6.70
2019-04-21T15:22:20.731Z,6.40
2019-04-21T15:23:28.181Z,6.70
2019-04-21T15:24:32.117Z,6.90
2019-04-21T15:25:36.574Z,6.80
2019-04-21T15:26:42.144Z,6.50